createdAt,value
2017-12-14T00:02:11.404Z,0.60
2017-12-14T00:04:39.000Z,0.50
2017-12-14T00:07:06.570Z,0.57
2017-12-14T00:09:34.151Z,0.60
2017-12-14T00:12:01.783Z,0.40
2017-12-14T00:14:30.099Z,0.60
2017-12-14T00:16:57.690Z,0.60
2017-12-14T00:19:25.258Z,0.60
2017-12-14T00:21:52.854Z,0.50
2017-12-14T00:24:19.933Z,0.50
2017-12-14T00:26:47.528Z,0.60
2017-12-14T00:29:15.093Z,0.60
2017-12-14T00:31:42.692Z,0.57
2017-12-14T00:34:10.298Z,0.53
2017-12-14T00:36:38.659Z,0.60
2017-12-14T00:39:07.730Z,0.70
2017-12-14T00:41:36.098Z,0.80
2017-12-14T00:44:03.666Z,0.60
2017-12-14T00:46:31.266Z,0.60
2017-12-14T00:48:59.606Z,0.50
2017-12-14T00:51:27.222Z,0.60
2017-12-14T00:53:54.813Z,0.60
2017-12-14T00:56:22.426Z,0.50
2017-12-14T00:58:50.759Z,0.60
2017-12-14T01:01:18.364Z,0.60
2017-12-14T01:03:46.699Z,1.17
2017-12-14T01:06:14.306Z,0.63
2017-12-14T01:08:41.899Z,0.90
2017-12-14T01:11:09.466Z,0.80
2017-12-14T01:16:11.370Z,0.60
2017-12-14T01:18:38.979Z,0.70
2017-12-14T01:21:06.548Z,0.60
2017-12-14T01:23:34.146Z,0.60
2017-12-14T01:26:01.711Z,0.60
2017-12-14T01:28:29.312Z,1.27
2017-12-14T01:30:56.903Z,0.60
2017-12-14T01:33:24.489Z,0.70
2017-12-14T01:35:52.061Z,0.70
2017-12-14T01:38:19.657Z,0.70
2017-12-14T01:40:47.250Z,0.50
2017-12-14T01:43:14.845Z,0.80
2017-12-14T01:45:43.173Z,0.80
2017-12-14T01:48:10.767Z,0.60
2017-12-14T01:50:38.336Z,0.70
2017-12-14T01:53:06.698Z,0.70
2017-12-14T01:55:34.267Z,0.63
2017-12-14T01:58:02.602Z,0.80
2017-12-14T02:00:30.198Z,1.00
2017-12-14T02:02:58.533Z,0.80
2017-12-14T02:05:26.140Z,1.07
2017-12-14T02:07:53.706Z,0.80
2017-12-14T02:10:22.066Z,0.70
2017-12-14T02:12:49.636Z,0.60
2017-12-14T02:15:17.228Z,0.90
2017-12-14T02:17:44.795Z,0.53
2017-12-14T02:20:12.400Z,0.80
2017-12-14T02:22:39.978Z,0.60
2017-12-14T02:25:08.386Z,0.70
2017-12-14T02:27:35.961Z,0.70
2017-12-14T02:30:03.551Z,0.77
2017-12-14T02:32:31.118Z,0.70
2017-12-14T02:34:58.714Z,0.50
2017-12-14T02:37:26.287Z,0.70
2017-12-14T02:39:53.878Z,0.60
2017-12-14T02:42:21.455Z,0.60
2017-12-14T02:44:49.814Z,0.70
2017-12-14T02:47:17.383Z,0.77
2017-12-14T02:49:44.980Z,0.90
2017-12-14T02:52:12.557Z,0.70
2017-12-14T02:54:40.123Z,0.87
2017-12-14T02:57:07.712Z,0.70
2017-12-14T02:59:35.287Z,1.10
2017-12-14T03:02:02.874Z,0.93
2017-12-14T03:04:30.451Z,1.00
2017-12-14T03:06:58.042Z,0.90
2017-12-14T03:09:25.606Z,0.80
2017-12-14T03:11:53.211Z,0.60
2017-12-14T03:14:20.787Z,0.90
2017-12-14T03:16:48.368Z,1.17
2017-12-14T03:19:15.938Z,0.90
2017-12-14T03:21:43.527Z,0.80
2017-12-14T03:24:11.862Z,0.67
2017-12-14T03:26:39.453Z,0.87
2017-12-14T03:29:07.018Z,0.70
2017-12-14T03:31:34.607Z,0.77
2017-12-14T03:34:02.176Z,0.67
2017-12-14T03:36:30.534Z,0.50
2017-12-14T03:38:58.098Z,0.60
2017-12-14T03:41:25.713Z,0.50
2017-12-14T03:43:53.290Z,0.70
2017-12-14T03:46:20.877Z,0.80
2017-12-14T03:48:48.461Z,0.60
2017-12-14T03:51:16.030Z,0.60
2017-12-14T03:53:43.640Z,0.53
2017-12-14T03:56:11.210Z,0.60
2017-12-14T03:58:38.830Z,0.70
2017-12-14T04:01:06.405Z,0.60
2017-12-14T04:03:33.998Z,0.80
2017-12-14T04:06:01.570Z,0.70
2017-12-14T04:08:29.153Z,0.70
2017-12-14T04:10:56.724Z,1.00
2017-12-14T04:13:24.331Z,0.70
2017-12-14T04:15:51.889Z,1.00
2017-12-14T04:18:19.479Z,0.60
2017-12-14T04:20:47.046Z,0.90
2017-12-14T04:23:14.630Z,0.87
2017-12-14T04:25:42.199Z,0.70
2017-12-14T04:28:10.556Z,0.60
2017-12-14T04:30:38.129Z,1.10
2017-12-14T04:33:05.759Z,1.40
2017-12-14T04:35:33.314Z,1.13
2017-12-14T04:38:00.940Z,1.93
2017-12-14T04:40:29.252Z,1.10
2017-12-14T04:42:56.817Z,0.60
2017-12-14T04:45:24.407Z,0.80
2017-12-14T04:47:52.750Z,0.93
2017-12-14T04:50:20.341Z,1.10
2017-12-14T04:52:47.910Z,0.80
2017-12-14T04:55:15.507Z,0.80
2017-12-14T04:57:43.085Z,1.00
2017-12-14T05:00:10.670Z,0.97
2017-12-14T05:02:38.242Z,1.07
2017-12-14T05:05:06.602Z,1.30
2017-12-14T05:07:34.174Z,1.20
2017-12-14T05:10:01.777Z,1.37
2017-12-14T05:12:30.111Z,1.10
2017-12-14T05:14:58.462Z,0.90
2017-12-14T05:17:26.030Z,2.47
2017-12-14T05:19:53.614Z,1.37
2017-12-14T05:22:21.191Z,1.30
2017-12-14T05:24:48.795Z,1.50
2017-12-14T05:27:16.357Z,1.20
2017-12-14T05:29:43.950Z,1.40
2017-12-14T05:32:12.274Z,1.80
2017-12-14T05:34:39.871Z,1.30
2017-12-14T05:37:07.439Z,1.37
2017-12-14T05:39:35.802Z,1.10
2017-12-14T05:42:03.378Z,1.17
2017-12-14T05:44:30.975Z,1.37
2017-12-14T05:46:58.545Z,1.70
2017-12-14T05:49:26.143Z,1.10
2017-12-14T05:51:53.714Z,1.20
2017-12-14T05:54:22.054Z,1.40
2017-12-14T05:56:49.646Z,2.13
2017-12-14T05:59:17.235Z,1.83
2017-12-14T06:01:44.837Z,1.50
2017-12-14T06:04:12.428Z,1.70
2017-12-14T06:06:40.027Z,1.20
2017-12-14T06:09:07.606Z,2.97
2017-12-14T06:11:35.209Z,1.67
2017-12-14T06:14:02.774Z,1.90
2017-12-14T06:16:30.357Z,1.80
2017-12-14T06:18:57.928Z,2.50
2017-12-14T06:21:25.510Z,1.53
2017-12-14T06:23:53.084Z,1.70
2017-12-14T06:26:20.679Z,1.73
2017-12-14T06:28:48.251Z,1.87
2017-12-14T06:31:15.837Z,1.23
2017-12-14T06:33:43.404Z,1.37
2017-12-14T06:36:10.994Z,1.90
2017-12-14T06:38:39.336Z,2.00
2017-12-14T06:41:06.950Z,1.90
2017-12-14T06:43:34.523Z,3.00
2017-12-14T06:46:02.132Z,1.90
2017-12-14T06:48:29.721Z,1.43
2017-12-14T06:50:57.321Z,1.77
2017-12-14T06:53:24.882Z,1.97
2017-12-14T06:55:52.475Z,2.40
2017-12-14T06:58:20.046Z,2.00
2017-12-14T07:00:48.424Z,2.27
2017-12-14T07:03:26.843Z,2.60
2017-12-14T07:05:55.206Z,2.43
2017-12-14T07:08:22.784Z,2.40
2017-12-14T07:10:51.121Z,2.60
2017-12-14T07:13:18.719Z,2.40
2017-12-14T07:15:47.050Z,2.00
2017-12-14T07:18:14.647Z,1.80
2017-12-14T07:20:42.235Z,2.27
2017-12-14T07:23:09.854Z,1.77
2017-12-14T07:25:37.427Z,1.43
2017-12-14T07:28:05.027Z,2.10
2017-12-14T07:30:32.596Z,2.80
2017-12-14T07:33:00.186Z,1.77
2017-12-14T07:35:27.762Z,2.80
2017-12-14T07:37:56.127Z,1.80
2017-12-14T07:40:23.702Z,2.60
2017-12-14T07:43:05.778Z,2.67
2017-12-14T07:45:55.083Z,2.00
2017-12-14T07:48:22.684Z,2.00
2017-12-14T07:50:50.275Z,2.57
2017-12-14T07:53:17.886Z,1.80
2017-12-14T07:55:45.468Z,1.90
2017-12-14T07:58:13.119Z,2.17
2017-12-14T08:00:40.717Z,1.70
2017-12-14T08:03:08.310Z,1.63
2017-12-14T08:05:35.888Z,2.00
2017-12-14T08:08:04.308Z,2.27
2017-12-14T08:10:31.940Z,1.60
2017-12-14T08:12:59.547Z,2.40
2017-12-14T08:15:27.902Z,1.93
2017-12-14T08:17:55.557Z,1.90
2017-12-14T08:20:23.141Z,2.07
2017-12-14T08:22:50.716Z,2.20
2017-12-14T08:25:19.078Z,1.63
2017-12-14T08:27:48.214Z,3.00
2017-12-14T08:30:15.810Z,2.50
2017-12-14T08:32:43.394Z,2.23
2017-12-14T08:35:11.796Z,2.10
2017-12-14T08:37:39.397Z,2.60
2017-12-14T08:40:06.995Z,2.17
2017-12-14T08:42:35.329Z,2.43
2017-12-14T08:45:03.707Z,3.63
2017-12-14T08:47:31.302Z,2.37
2017-12-14T08:49:58.895Z,1.77
2017-12-14T08:52:26.474Z,2.07
2017-12-14T08:54:54.689Z,2.60
2017-12-14T08:57:22.273Z,2.10
2017-12-14T08:59:50.634Z,2.40
2017-12-14T09:02:18.970Z,2.47
2017-12-14T09:04:46.574Z,1.87
2017-12-14T09:07:14.926Z,1.90
2017-12-14T09:09:42.523Z,2.73
2017-12-14T09:12:10.883Z,1.73
2017-12-14T09:14:39.223Z,2.87
2017-12-14T09:17:06.818Z,2.33
2017-12-14T09:19:35.159Z,2.73
2017-12-14T09:22:02.766Z,2.00
2017-12-14T09:24:31.103Z,2.17
2017-12-14T09:26:58.700Z,1.87
2017-12-14T09:29:27.059Z,2.93
2017-12-14T09:31:54.684Z,2.67
2017-12-14T09:34:22.256Z,1.73
2017-12-14T09:36:49.850Z,2.43
2017-12-14T09:39:18.201Z,2.33
2017-12-14T09:41:45.791Z,2.60
2017-12-14T09:44:13.367Z,2.30
2017-12-14T09:46:40.962Z,3.00
2017-12-14T09:49:08.551Z,2.50
2017-12-14T09:51:36.154Z,2.63
2017-12-14T09:54:03.784Z,2.60
2017-12-14T09:56:31.383Z,2.20
2017-12-14T09:58:58.955Z,2.07
2017-12-14T10:01:26.554Z,2.17
2017-12-14T10:03:54.131Z,2.00
2017-12-14T10:06:21.703Z,2.37
2017-12-14T10:08:49.302Z,1.60
2017-12-14T10:11:16.880Z,2.33
2017-12-14T10:13:44.470Z,2.43
2017-12-14T10:16:12.807Z,2.37
2017-12-14T10:18:40.440Z,2.40
2017-12-14T10:21:08.024Z,2.30
2017-12-14T10:23:35.634Z,1.80
2017-12-14T10:26:03.206Z,2.33
2017-12-14T10:28:30.803Z,2.60
2017-12-14T10:30:58.377Z,3.33
2017-12-14T10:33:25.979Z,2.67
2017-12-14T10:35:53.555Z,2.40
2017-12-14T10:38:21.155Z,2.53
2017-12-14T10:40:48.727Z,2.80
2017-12-14T10:43:17.092Z,2.47
2017-12-14T10:45:44.667Z,2.80
2017-12-14T10:48:13.025Z,3.00
2017-12-14T10:50:40.598Z,2.80
2017-12-14T10:53:08.930Z,2.00
2017-12-14T10:55:37.289Z,2.40
2017-12-14T10:58:04.866Z,3.37
2017-12-14T11:00:38.063Z,2.80
2017-12-14T11:03:05.678Z,2.50
2017-12-14T11:05:34.058Z,2.00
2017-12-14T11:08:01.648Z,3.13
2017-12-14T11:10:29.259Z,2.53
2017-12-14T11:12:57.604Z,3.80
2017-12-14T11:15:25.202Z,4.77
2017-12-14T11:17:52.790Z,2.77
2017-12-14T11:20:20.382Z,2.40
2017-12-14T11:22:47.954Z,2.93
2017-12-14T11:25:15.565Z,2.70
2017-12-14T11:27:43.148Z,2.37
2017-12-14T11:30:10.756Z,2.30
2017-12-14T11:32:38.326Z,3.07
2017-12-14T11:35:06.681Z,4.67
2017-12-14T11:37:36.947Z,2.70
2017-12-14T11:40:04.538Z,2.70
2017-12-14T11:42:32.163Z,2.33
2017-12-14T11:44:59.740Z,2.10
2017-12-14T11:47:27.334Z,4.00
2017-12-14T11:49:54.956Z,4.40
2017-12-14T11:52:22.567Z,2.70
2017-12-14T11:54:50.926Z,2.73
2017-12-14T11:57:18.538Z,2.37
2017-12-14T11:59:46.121Z,2.83
2017-12-14T12:02:13.772Z,3.00
2017-12-14T12:04:41.347Z,2.63
2017-12-14T12:07:08.982Z,2.73
2017-12-14T12:09:36.571Z,2.87
2017-12-14T12:12:04.171Z,1.80
2017-12-14T12:14:32.505Z,2.53
2017-12-14T12:17:00.119Z,3.13
2017-12-14T12:19:27.703Z,3.07
2017-12-14T12:21:55.303Z,2.70
2017-12-14T12:24:22.884Z,3.10
2017-12-14T12:26:50.481Z,2.83
2017-12-14T12:29:18.056Z,3.07
2017-12-14T12:31:45.670Z,2.90
2017-12-14T12:34:14.007Z,2.73
2017-12-14T12:36:41.583Z,4.83
2017-12-14T12:39:09.175Z,3.40
2017-12-14T12:41:36.776Z,3.87
2017-12-14T12:44:04.376Z,3.30
2017-12-14T12:46:32.715Z,3.43
2017-12-14T12:49:00.331Z,2.70
2017-12-14T12:51:27.902Z,3.37
2017-12-14T12:53:55.499Z,2.57
2017-12-14T12:56:23.093Z,3.03
2017-12-14T12:58:51.466Z,2.80
2017-12-14T13:01:19.079Z,2.67
2017-12-14T13:03:46.670Z,3.57
2017-12-14T13:06:14.252Z,3.00
2017-12-14T13:08:42.619Z,2.80
2017-12-14T13:11:10.186Z,2.60
2017-12-14T13:13:38.555Z,2.87
2017-12-14T13:16:06.168Z,2.87
2017-12-14T13:21:07.575Z,3.43
2017-12-14T13:23:35.166Z,2.50
2017-12-14T13:26:02.737Z,3.30
2017-12-14T13:28:30.329Z,2.30
2017-12-14T13:30:57.898Z,3.40
2017-12-14T13:33:25.506Z,2.93
2017-12-14T13:35:53.083Z,2.83
2017-12-14T13:38:20.680Z,2.37
2017-12-14T13:40:48.259Z,3.40
2017-12-14T13:43:16.619Z,3.10
2017-12-14T13:45:44.198Z,2.80
2017-12-14T13:48:12.563Z,4.10
2017-12-14T13:50:40.151Z,2.70
2017-12-14T13:53:08.563Z,4.67
2017-12-14T13:55:36.139Z,3.10
2017-12-14T13:58:03.718Z,2.70
2017-12-14T14:00:31.362Z,2.57
2017-12-14T14:02:58.942Z,2.87
2017-12-14T14:05:26.542Z,2.93
2017-12-14T14:07:54.114Z,2.53
2017-12-14T14:10:21.717Z,2.43
2017-12-14T14:12:49.290Z,2.93
2017-12-14T14:15:17.662Z,2.80
2017-12-14T14:17:45.255Z,3.07
2017-12-14T14:20:12.846Z,2.23
2017-12-14T14:22:42.075Z,2.40
2017-12-14T14:25:09.666Z,2.90
2017-12-14T14:27:37.242Z,2.40
2017-12-14T14:30:04.840Z,2.70
2017-12-14T14:32:32.419Z,2.87
2017-12-14T14:35:00.022Z,3.03
2017-12-14T14:37:27.595Z,2.20
2017-12-14T14:39:55.202Z,2.30
2017-12-14T14:42:22.788Z,2.87
2017-12-14T14:44:50.383Z,2.90
2017-12-14T14:47:17.979Z,2.97
2017-12-14T14:49:46.363Z,2.97
2017-12-14T14:52:13.939Z,2.80
2017-12-14T14:54:41.534Z,3.33
2017-12-14T14:57:09.124Z,8.70
2017-12-14T14:59:36.722Z,4.67
2017-12-14T15:02:04.310Z,4.53
2017-12-14T15:04:31.909Z,2.90
2017-12-14T15:07:00.260Z,3.10
2017-12-14T15:09:27.867Z,3.10
2017-12-14T15:14:29.326Z,3.40
2017-12-14T15:16:57.678Z,3.30
2017-12-14T15:19:25.290Z,4.47
2017-12-14T15:21:52.865Z,2.80
2017-12-14T15:24:20.451Z,5.93
2017-12-14T15:26:48.050Z,3.47
2017-12-14T15:29:15.624Z,4.73
2017-12-14T15:31:43.263Z,3.37
2017-12-14T15:34:11.775Z,3.27
2017-12-14T15:36:39.374Z,2.63
2017-12-14T15:39:06.957Z,2.97
2017-12-14T15:41:35.333Z,3.00
2017-12-14T15:44:03.747Z,6.53
2017-12-14T15:46:31.339Z,3.30
2017-12-14T15:48:58.920Z,5.50
2017-12-14T15:51:26.545Z,3.90
2017-12-14T15:53:54.131Z,3.40
2017-12-14T15:56:22.495Z,4.00
2017-12-14T15:58:50.066Z,8.40
2017-12-14T16:01:17.657Z,3.63
2017-12-14T16:03:45.278Z,2.70
2017-12-14T16:06:12.862Z,3.07
2017-12-14T16:08:41.271Z,3.30
2017-12-14T16:11:08.872Z,2.93
2017-12-14T16:13:36.458Z,3.43
2017-12-14T16:16:04.057Z,4.70
2017-12-14T16:18:32.419Z,2.60
2017-12-14T16:21:00.026Z,4.10
2017-12-14T16:23:27.623Z,3.50
2017-12-14T16:25:55.989Z,2.97
2017-12-14T16:28:24.364Z,4.10
2017-12-14T16:30:51.953Z,3.50
2017-12-14T16:33:19.524Z,3.10
2017-12-14T16:35:47.101Z,2.80
2017-12-14T16:38:14.706Z,3.10
2017-12-14T16:40:42.298Z,3.30
2017-12-14T16:43:09.917Z,3.60
2017-12-14T16:45:38.261Z,2.80
2017-12-14T16:48:05.858Z,3.90
2017-12-14T16:50:34.207Z,3.80
2017-12-14T16:53:01.798Z,3.30
2017-12-14T16:55:30.140Z,3.07
2017-12-14T16:57:57.739Z,2.70
2017-12-14T17:00:26.084Z,3.40
2017-12-14T17:02:53.715Z,13.53
2017-12-14T17:05:21.286Z,5.37
2017-12-14T17:10:22.862Z,1.90
2017-12-14T17:12:50.458Z,2.20
2017-12-14T17:15:18.030Z,3.00
2017-12-14T17:17:45.626Z,2.73
2017-12-14T17:20:13.206Z,2.00
2017-12-14T17:22:40.807Z,2.00
2017-12-14T17:25:08.378Z,2.87
2017-12-14T17:27:35.974Z,1.50
2017-12-14T17:30:03.583Z,1.40
2017-12-14T17:32:31.183Z,1.67
2017-12-14T17:34:58.755Z,1.10
2017-12-14T17:37:26.354Z,1.80
2017-12-14T17:39:53.948Z,1.30
2017-12-14T17:42:21.528Z,3.60
2017-12-14T17:44:49.128Z,2.90
2017-12-14T17:47:17.479Z,2.20
2017-12-14T17:49:45.996Z,1.50
2017-12-14T17:52:13.581Z,1.50
2017-12-14T17:54:41.172Z,1.30
2017-12-14T17:57:08.738Z,1.63
2017-12-14T17:59:36.339Z,1.57
2017-12-14T18:02:03.934Z,1.00
2017-12-14T18:04:31.526Z,1.13
2017-12-14T18:06:59.114Z,1.90
2017-12-14T18:09:26.727Z,1.17
2017-12-14T18:11:54.303Z,1.80
2017-12-14T18:14:21.899Z,1.33
2017-12-14T18:16:49.479Z,0.77
2017-12-14T18:19:17.095Z,1.13
2017-12-14T18:21:44.687Z,1.53
2017-12-14T18:24:12.303Z,1.20
2017-12-14T18:26:39.892Z,1.07
2017-12-14T18:29:07.490Z,1.27
2017-12-14T18:31:35.100Z,1.30
2017-12-14T18:34:02.703Z,1.90
2017-12-14T18:36:30.306Z,1.10
2017-12-14T18:39:01.044Z,1.20
2017-12-14T18:41:30.001Z,1.80
2017-12-14T18:43:58.874Z,1.60
2017-12-14T18:46:27.888Z,2.73
2017-12-14T18:48:55.574Z,3.13
2017-12-14T18:51:23.175Z,2.33
2017-12-14T18:53:50.763Z,3.33
2017-12-14T18:56:18.387Z,2.03
2017-12-14T18:58:45.955Z,2.33
2017-12-14T19:01:13.549Z,2.37
2017-12-14T19:03:41.125Z,1.10
2017-12-14T19:06:08.735Z,1.67
2017-12-14T19:08:36.307Z,1.80
2017-12-14T19:11:03.895Z,4.03
2017-12-14T19:13:31.467Z,1.93
2017-12-14T19:15:59.038Z,1.13
2017-12-14T19:18:26.636Z,2.27
2017-12-14T19:20:54.215Z,2.13
2017-12-14T19:23:21.802Z,1.60
2017-12-14T19:25:49.388Z,2.30
2017-12-14T19:28:16.978Z,2.50
2017-12-14T19:30:44.815Z,2.13
2017-12-14T19:33:13.187Z,2.23
2017-12-14T19:35:41.522Z,1.60
2017-12-14T19:38:09.125Z,1.20
2017-12-14T19:40:37.459Z,1.97
2017-12-14T19:43:05.046Z,1.83
2017-12-14T19:45:32.614Z,1.43
2017-12-14T19:48:01.024Z,2.00
2017-12-14T19:50:28.593Z,1.53
2017-12-14T19:52:56.187Z,1.33
2017-12-14T19:55:23.759Z,1.47
2017-12-14T19:57:52.169Z,1.27
2017-12-14T20:00:19.745Z,1.57
2017-12-14T20:02:48.184Z,1.10
2017-12-14T20:05:15.868Z,1.13
2017-12-14T20:07:43.466Z,1.20
2017-12-14T20:10:11.044Z,1.53
2017-12-14T20:12:38.655Z,1.63
2017-12-14T20:15:07.028Z,1.33
2017-12-14T20:17:34.674Z,2.23
2017-12-14T20:20:03.037Z,1.27
2017-12-14T20:22:31.834Z,0.87
2017-12-14T20:24:59.789Z,0.80
2017-12-14T20:27:28.261Z,0.60
2017-12-14T20:29:55.863Z,1.03
2017-12-14T20:32:23.441Z,1.90
2017-12-14T20:34:51.361Z,0.87
2017-12-14T20:37:19.703Z,1.30
2017-12-14T20:39:47.357Z,1.20
2017-12-14T20:42:14.939Z,0.93
2017-12-14T20:44:42.536Z,0.60
2017-12-14T20:47:10.161Z,0.93
2017-12-14T20:49:37.801Z,0.63
2017-12-14T20:52:05.421Z,1.43
2017-12-14T20:54:33.047Z,1.47
2017-12-14T20:57:00.624Z,0.77
2017-12-14T20:59:28.992Z,0.67
2017-12-14T21:01:57.329Z,0.70
2017-12-14T21:04:24.993Z,0.70
2017-12-14T21:06:52.622Z,0.60
2017-12-14T21:09:20.274Z,0.70
2017-12-14T21:11:47.846Z,0.60
2017-12-14T21:14:15.466Z,0.73
2017-12-14T21:16:43.852Z,1.20
2017-12-14T21:19:11.417Z,0.93
2017-12-14T21:21:39.872Z,0.60
2017-12-14T21:24:07.490Z,0.80
2017-12-14T21:26:35.123Z,0.80
2017-12-14T21:29:02.719Z,0.90
2017-12-14T21:31:30.309Z,2.57
2017-12-14T21:33:57.882Z,0.70
2017-12-14T21:36:25.525Z,0.70
2017-12-14T21:38:53.152Z,0.90
2017-12-14T21:41:20.741Z,0.90
2017-12-14T21:43:48.361Z,0.73
2017-12-14T21:46:15.959Z,1.87
2017-12-14T21:48:43.531Z,0.93
2017-12-14T21:51:11.127Z,0.70
2017-12-14T21:53:38.696Z,0.80
2017-12-14T21:56:06.283Z,1.00
2017-12-14T21:58:33.859Z,1.77
2017-12-14T22:01:01.466Z,0.77
2017-12-14T22:03:29.033Z,0.90
2017-12-14T22:05:56.640Z,0.90
2017-12-14T22:08:24.226Z,0.97
2017-12-14T22:10:52.570Z,1.47
2017-12-14T22:13:20.836Z,0.90
2017-12-14T22:15:48.614Z,1.00
2017-12-14T22:18:16.592Z,1.43
2017-12-14T22:20:44.521Z,0.90
2017-12-14T22:23:12.166Z,1.00
2017-12-14T22:25:39.798Z,0.90
2017-12-14T22:28:08.206Z,0.80
2017-12-14T22:30:35.825Z,0.93
2017-12-14T22:33:03.422Z,1.00
2017-12-14T22:35:31.050Z,0.80
2017-12-14T22:37:58.685Z,1.03
2017-12-14T22:40:26.258Z,0.80
2017-12-14T22:42:53.842Z,0.90
2017-12-14T22:45:22.174Z,0.60
2017-12-14T22:47:49.808Z,1.60
2017-12-14T22:50:17.383Z,0.80
2017-12-14T22:52:45.025Z,1.30
2017-12-14T22:55:12.640Z,1.00
2017-12-14T22:57:41.009Z,0.80
2017-12-14T23:00:08.615Z,0.70
2017-12-14T23:02:36.192Z,1.07
2017-12-14T23:05:03.782Z,0.80
2017-12-14T23:07:31.354Z,0.90
2017-12-14T23:09:59.713Z,0.77
2017-12-14T23:12:27.276Z,0.80
2017-12-14T23:14:54.878Z,0.77
2017-12-14T23:17:22.451Z,0.80
2017-12-14T23:19:50.820Z,0.90
2017-12-14T23:22:18.391Z,0.80
2017-12-14T23:24:45.981Z,1.00
2017-12-14T23:27:13.547Z,0.60
2017-12-14T23:29:41.139Z,0.70
2017-12-14T23:32:09.478Z,0.83
2017-12-14T23:34:37.068Z,0.90
2017-12-14T23:37:04.634Z,0.97
2017-12-14T23:39:33.786Z,0.87
2017-12-14T23:42:01.354Z,0.90
2017-12-14T23:44:28.959Z,1.10
2017-12-14T23:46:56.526Z,0.97
2017-12-14T23:49:24.123Z,2.03
2017-12-14T23:51:51.707Z,0.90
2017-12-14T23:54:19.283Z,0.93
2017-12-14T23:56:47.638Z,0.83
2017-12-14T23:59:15.214Z,1.13
